Wetterstation Oberdrees
Wetterdaten: aktuell Dienstag, 28.03.2023 02:15
Datum Zeit Temp. A. Feuchte A. Luftdruck Regen Wind Richtung Richtung Taupunkt Windchill Windben
28.03.2023 02:15 0,4 C 85 % 1028,3 hPa 0,0 l/m 5,6 km/h (2 Bft) N 360 -1,8 C 0,4 C 8,0 km/h (2 Bft)
28.03.2023 02:10 0,5 C 85 % 1028,3 hPa 0,0 l/m 4,8 km/h (1 Bft) N 360 -1,7 C 0,5 C 9,7 km/h (2 Bft)
28.03.2023 02:05 0,5 C 85 % 1028,3 hPa 0,0 l/m 4,8 km/h (1 Bft) N 360 -1,7 C 0,5 C 8,0 km/h (2 Bft)
28.03.2023 02:00 0,6 C 85 % 1028,3 hPa 0,0 l/m 4,8 km/h (1 Bft) N 360 -1,6 C 0,6 C 12,9 km/h (3 Bft)
28.03.2023 02:05 0,5 C 85 % 1028,3 hPa 0,0 l/m 5,4 km/h (2 Bft) N 360 -1,7 C 0,5 C 8,0 km/h (2 Bft)
28.03.2023 02:00 0,6 C 85 % 1028,3 hPa 0,0 l/m 4,9 km/h (1 Bft) N 360 -1,6 C 0,6 C 9,7 km/h (2 Bft)
28.03.2023 01:55 0,5 C 85 % 1028,3 hPa 0,0 l/m 5,9 km/h (2 Bft) N 360 -1,7 C 0,5 C 12,9 km/h (3 Bft)
28.03.2023 01:50 0,4 C 86 % 1028,3 hPa 0,0 l/m 5,4 km/h (2 Bft) N 360 -1,7 C 0,4 C 9,7 km/h (2 Bft)
28.03.2023 01:45 0,4 C 85 % 1028,2 hPa 0,0 l/m 4,9 km/h (1 Bft) N 360 -1,8 C 0,4 C 9,7 km/h (2 Bft)
28.03.2023 01:40 0,5 C 85 % 1028,1 hPa 0,0 l/m 3,6 km/h (1 Bft) N 360 -1,7 C 0,5 C 8,0 km/h (2 Bft)
28.03.2023 01:35 0,6 C 85 % 1028,2 hPa 0,0 l/m 4,7 km/h (1 Bft) N 360 -1,6 C 0,6 C 8,0 km/h (2 Bft)
28.03.2023 01:30 0,6 C 85 % 1028,1 hPa 0,0 l/m 4,5 km/h (1 Bft) N 360 -1,6 C 0,6 C 8,0 km/h (2 Bft)
28.03.2023 01:25 0,7 C 84 % 1028,0 hPa 0,0 l/m 4,8 km/h (1 Bft) N 360 -1,7 C 0,7 C 8,0 km/h (2 Bft)
28.03.2023 01:20 0,9 C 84 % 1028,0 hPa 0,0 l/m 4,0 km/h (1 Bft) N 360 -1,5 C 0,9 C 8,0 km/h (2 Bft)
28.03.2023 01:15 1,1 C 83 % 1027,9 hPa 0,0 l/m 5,4 km/h (2 Bft) N 360 -1,5 C 1,1 C 8,0 km/h (2 Bft)
28.03.2023 01:10 1,2 C 83 % 1027,9 hPa 0,0 l/m 5,7 km/h (2 Bft) N 360 -1,4 C 1,2 C 9,7 km/h (2 Bft)
28.03.2023 01:05 1,2 C 84 % 1027,8 hPa 0,0 l/m 5,7 km/h (2 Bft) N 360 -1,2 C 1,2 C 9,7 km/h (2 Bft)
28.03.2023 01:00 1,2 C 84 % 1027,7 hPa 0,0 l/m 5,4 km/h (2 Bft) N 360 -1,2 C 1,2 C 9,7 km/h (2 Bft)
28.03.2023 00:55 1,2 C 84 % 1027,7 hPa 0,0 l/m 5,9 km/h (2 Bft) N 360 -1,2 C 1,2 C 9,7 km/h (2 Bft)
28.03.2023 00:50 1,3 C 83 % 1027,6 hPa 0,0 l/m 5,7 km/h (2 Bft) N 360 -1,3 C 1,3 C 9,7 km/h (2 Bft)
28.03.2023 00:45 1,2 C 83 % 1027,7 hPa 0,0 l/m 7,6 km/h (2 Bft) N 360 -1,4 C -0,0 C 14,5 km/h (3 Bft)
28.03.2023 00:40 1,2 C 84 % 1027,5 hPa 0,0 l/m 6,8 km/h (2 Bft) N 360 -1,2 C 0,8 C 12,9 km/h (3 Bft)
28.03.2023 00:35 1,2 C 84 % 1027,5 hPa 0,0 l/m 6,7 km/h (2 Bft) N 360 -1,2 C 0,9 C 12,9 km/h (3 Bft)
28.03.2023 00:30 1,2 C 84 % 1027,5 hPa 0,0 l/m 6,1 km/h (2 Bft) N 360 -1,2 C 1,2 C 9,7 km/h (2 Bft)
28.03.2023 00:25 1,2 C 84 % 1027,4 hPa 0,0 l/m 5,6 km/h (2 Bft) N 360 -1,2 C 1,2 C 12,9 km/h (3 Bft)
28.03.2023 00:20 1,2 C 84 % 1027,4 hPa 0,0 l/m 6,1 km/h (2 Bft) N 360 -1,2 C 1,2 C 9,7 km/h (2 Bft)
28.03.2023 00:15 1,3 C 84 % 1027,4 hPa 0,0 l/m 6,9 km/h (2 Bft) N 360 -1,1 C 0,8 C 12,9 km/h (3 Bft)
28.03.2023 00:10 1,2 C 85 % 1027,3 hPa 0,0 l/m 6,9 km/h (2 Bft) N 360 -1,0 C 0,7 C 14,5 km/h (3 Bft)
28.03.2023 00:05 1,2 C 85 % 1027,3 hPa 0,0 l/m 6,5 km/h (2 Bft) N 360 -1,0 C 1,1 C 12,9 km/h (3 Bft)
28.03.2023 00:00 1,1 C 85 % 1027,3 hPa 0,0 l/m 6,6 km/h (2 Bft) N 360 -1,1 C 0,9 C 12,9 km/h (3 Bft)
27.03.2023 23:55 1,1 C 86 % 1027,2 hPa 0,0 l/m 6,3 km/h (2 Bft) N 360 -1,0 C 1,1 C 12,9 km/h (3 Bft)
27.03.2023 23:50 1,1 C 86 % 1027,2 hPa 0,0 l/m 5,8 km/h (2 Bft) N 360 -1,0 C 1,1 C 12,9 km/h (3 Bft)
27.03.2023 23:45 1,1 C 86 % 1027,2 hPa 0,0 l/m 4,7 km/h (1 Bft) N 360 -1,0 C 1,1 C 8,0 km/h (2 Bft)
27.03.2023 23:40 1,1 C 86 % 1027,1 hPa 0,0 l/m 5,1 km/h (1 Bft) N 360 -1,0 C 1,1 C 9,7 km/h (2 Bft)
27.03.2023 23:35 1,1 C 86 % 1027,1 hPa 0,0 l/m 5,2 km/h (1 Bft) N 360 -1,0 C 1,1 C 12,9 km/h (3 Bft)
27.03.2023 23:30 1,1 C 86 % 1027,1 hPa 0,0 l/m 5,3 km/h (1 Bft) N 360 -1,0 C 1,1 C 9,7 km/h (2 Bft)
27.03.2023 23:25 1,0 C 86 % 1027,0 hPa 0,0 l/m 4,9 km/h (1 Bft) N 360 -1,1 C 1,0 C 8,0 km/h (2 Bft)
27.03.2023 23:20 1,1 C 86 % 1026,9 hPa 0,0 l/m 4,6 km/h (1 Bft) N 360 -1,0 C 1,1 C 8,0 km/h (2 Bft)
27.03.2023 23:15 1,0 C 86 % 1026,9 hPa 0,0 l/m 4,4 km/h (1 Bft) N 360 -1,1 C 1,0 C 8,0 km/h (2 Bft)
27.03.2023 23:10 1,1 C 85 % 1026,8 hPa 0,0 l/m 4,8 km/h (1 Bft) N 360 -1,1 C 1,1 C 6,4 km/h (2 Bft)
27.03.2023 23:05 1,3 C 85 % 1026,8 hPa 0,0 l/m 3,6 km/h (1 Bft) N 360 -0,9 C 1,3 C 6,4 km/h (2 Bft)
27.03.2023 23:00 1,4 C 84 % 1026,8 hPa 0,0 l/m 2,9 km/h (1 Bft) N 360 -1,0 C 1,4 C 6,4 km/h (2 Bft)
27.03.2023 22:55 1,4 C 84 % 1026,8 hPa 0,0 l/m 2,9 km/h (1 Bft) N 360 -1,0 C 1,4 C 6,4 km/h (2 Bft)
27.03.2023 22:50 1,6 C 84 % 1026,7 hPa 0,0 l/m 4,3 km/h (1 Bft) W 276 -0,8 C 1,6 C 9,7 km/h (2 Bft)
27.03.2023 22:45 1,6 C 84 % 1026,7 hPa 0,0 l/m 5,2 km/h (1 Bft) W 273 -0,8 C 1,6 C 11,3 km/h (2 Bft)
27.03.2023 22:40 1,7 C 83 % 1026,6 hPa 0,0 l/m 5,0 km/h (1 Bft) W 279 -0,9 C 1,7 C 9,7 km/h (2 Bft)
27.03.2023 22:35 1,7 C 83 % 1026,8 hPa 0,0 l/m 5,3 km/h (1 Bft) W 268 -0,9 C 1,7 C 9,7 km/h (2 Bft)
27.03.2023 22:30 1,7 C 83 % 1026,5 hPa 0,0 l/m 5,3 km/h (1 Bft) W 274 -0,9 C 1,7 C 9,7 km/h (2 Bft)
27.03.2023 22:25 1,7 C 83 % 1026,6 hPa 0,0 l/m 4,9 km/h (1 Bft) W 278 -0,9 C 1,7 C 9,7 km/h (2 Bft)
27.03.2023 22:20 1,6 C 83 % 1026,6 hPa 0,0 l/m 4,6 km/h (1 Bft) W 279 -1,0 C 1,6 C 9,7 km/h (2 Bft)
27.03.2023 22:15 1,7 C 83 % 1026,7 hPa 0,0 l/m 4,6 km/h (1 Bft) W 271 -0,9 C 1,7 C 9,7 km/h (2 Bft)
27.03.2023 22:10 1,7 C 83 % 1026,6 hPa 0,0 l/m 3,7 km/h (1 Bft) W 275 -0,9 C 1,7 C 6,4 km/h (2 Bft)
27.03.2023 22:05 1,8 C 83 % 1026,6 hPa 0,0 l/m 4,0 km/h (1 Bft) W 279 -0,8 C 1,8 C 6,4 km/h (2 Bft)
27.03.2023 22:00 1,8 C 83 % 1026,7 hPa 0,0 l/m 4,1 km/h (1 Bft) W 275 -0,8 C 1,8 C 9,7 km/h (2 Bft)
27.03.2023 21:55 1,9 C 83 % 1026,5 hPa 0,0 l/m 4,6 km/h (1 Bft) W 279 -0,7 C 1,9 C 9,7 km/h (2 Bft)
27.03.2023 21:50 1,9 C 82 % 1026,4 hPa 0,0 l/m 4,3 km/h (1 Bft) W 264 -0,8 C 1,9 C 6,4 km/h (2 Bft)
27.03.2023 21:45 1,9 C 82 % 1026,5 hPa 0,0 l/m 3,7 km/h (1 Bft) W-NW 282 -0,8 C 1,9 C 6,4 km/h (2 Bft)
27.03.2023 21:40 2,1 C 82 % 1026,3 hPa 0,0 l/m 4,2 km/h (1 Bft) W 260 -0,6 C 2,1 C 9,7 km/h (2 Bft)
27.03.2023 21:35 2,2 C 81 % 1026,5 hPa 0,0 l/m 4,3 km/h (1 Bft) N 360 -0,7 C 2,2 C 8,0 km/h (2 Bft)
27.03.2023 21:30 2,3 C 81 % 1026,3 hPa 0,0 l/m 4,5 km/h (1 Bft) N 360 -0,6 C 2,3 C 8,0 km/h (2 Bft)
27.03.2023 21:25 2,3 C 81 % 1026,3 hPa 0,0 l/m 4,9 km/h (1 Bft) N 360 -0,6 C 2,3 C 8,0 km/h (2 Bft)
27.03.2023 21:20 2,3 C 81 % 1026,3 hPa 0,0 l/m 4,7 km/h (1 Bft) N 360 -0,6 C 2,3 C 12,9 km/h (3 Bft)
27.03.2023 21:15 2,3 C 81 % 1026,2 hPa 0,0 l/m 4,1 km/h (1 Bft) N 360 -0,6 C 2,3 C 8,0 km/h (2 Bft)
27.03.2023 21:10 2,4 C 81 % 1026,3 hPa 0,0 l/m 4,0 km/h (1 Bft) N 360 -0,5 C 2,4 C 6,4 km/h (2 Bft)
27.03.2023 21:05 2,6 C 80 % 1026,3 hPa 0,0 l/m 4,0 km/h (1 Bft) N 360 -0,5 C 2,6 C 6,4 km/h (2 Bft)
27.03.2023 21:00 2,7 C 80 % 1026,3 hPa 0,0 l/m 3,9 km/h (1 Bft) N 360 -0,4 C 2,7 C 6,4 km/h (2 Bft)
27.03.2023 20:55 2,8 C 80 % 1026,3 hPa 0,0 l/m 3,6 km/h (1 Bft) N 360 -0,3 C 2,8 C 6,4 km/h (2 Bft)
27.03.2023 20:50 2,9 C 79 % 1026,1 hPa 0,0 l/m 4,0 km/h (1 Bft) W-NW 291 -0,4 C 2,9 C 8,0 km/h (2 Bft)
27.03.2023 20:45 3,0 C 79 % 1026,0 hPa 0,0 l/m 5,3 km/h (1 Bft) W-NW 299 -0,3 C 3,0 C 12,9 km/h (3 Bft)
27.03.2023 20:40 3,1 C 79 % 1025,9 hPa 0,0 l/m 6,9 km/h (2 Bft) W-NW 302 -0,2 C 2,6 C 12,9 km/h (3 Bft)
27.03.2023 20:35 3,2 C 79 % 1025,9 hPa 0,0 l/m 6,6 km/h (2 Bft) NW 317 -0,1 C 3,0 C 14,5 km/h (3 Bft)
27.03.2023 20:30 3,2 C 80 % 1025,8 hPa 0,0 l/m 5,8 km/h (2 Bft) W 279 0,1 C 3,2 C 12,9 km/h (3 Bft)
27.03.2023 20:25 3,3 C 81 % 1025,7 hPa 0,0 l/m 6,1 km/h (2 Bft) NW 325 0,4 C 3,3 C 14,5 km/h (3 Bft)
27.03.2023 20:20 3,3 C 81 % 1025,8 hPa 0,0 l/m 5,8 km/h (2 Bft) NW 306 0,4 C 3,3 C 12,9 km/h (3 Bft)
27.03.2023 20:15 3,3 C 81 % 1025,7 hPa 0,0 l/m 5,4 km/h (2 Bft) NW 311 0,4 C 3,3 C 12,9 km/h (3 Bft)
27.03.2023 20:10 3,3 C 82 % 1025,6 hPa 0,0 l/m 4,6 km/h (1 Bft) NW 315 0,5 C 3,3 C 9,7 km/h (2 Bft)
27.03.2023 20:05 3,4 C 82 % 1025,6 hPa 0,0 l/m 5,1 km/h (1 Bft) N-NW 332 0,6 C 3,4 C 9,7 km/h (2 Bft)
27.03.2023 20:00 3,3 C 82 % 1025,5 hPa 0,0 l/m 4,8 km/h (1 Bft) NW 320 0,5 C 3,3 C 9,7 km/h (2 Bft)
27.03.2023 19:55 3,3 C 82 % 1025,5 hPa 0,0 l/m 6,4 km/h (2 Bft) N-NW 333 0,5 C 3,3 C 14,5 km/h (3 Bft)
27.03.2023 19:50 3,1 C 84 % 1025,4 hPa 0,0 l/m 5,4 km/h (2 Bft) N-NW 327 0,7 C 3,1 C 12,9 km/h (3 Bft)
27.03.2023 19:45 3,0 C 84 % 1025,3 hPa 0,0 l/m 4,6 km/h (1 Bft) NW 306 0,6 C 3,0 C 9,7 km/h (2 Bft)
27.03.2023 19:40 3,0 C 85 % 1025,3 hPa 0,0 l/m 4,2 km/h (1 Bft) W 273 0,7 C 3,0 C 9,7 km/h (2 Bft)
27.03.2023 19:35 3,1 C 85 % 1025,3 hPa 0,0 l/m 3,5 km/h (1 Bft) NW 304 0,8 C 3,1 C 6,4 km/h (2 Bft)
27.03.2023 19:30 3,1 C 85 % 1025,2 hPa 0,0 l/m 2,3 km/h (1 Bft) NW 306 0,8 C 3,1 C 4,8 km/h (1 Bft)
27.03.2023 19:25 3,1 C 85 % 1025,1 hPa 0,0 l/m 2,8 km/h (1 Bft) NW 306 0,8 C 3,1 C 4,8 km/h (1 Bft)
27.03.2023 19:20 3,1 C 85 % 1025,2 hPa 0,0 l/m 2,6 km/h (1 Bft) NW 311 0,8 C 3,1 C 4,8 km/h (1 Bft)
27.03.2023 19:15 3,1 C 85 % 1025,0 hPa 0,0 l/m 2,7 km/h (1 Bft) NW 311 0,8 C 3,1 C 4,8 km/h (1 Bft)
27.03.2023 19:10 3,1 C 86 % 1025,1 hPa 0,0 l/m 3,3 km/h (1 Bft) NW 311 1,0 C 3,1 C 4,8 km/h (1 Bft)
27.03.2023 19:05 3,2 C 85 % 1024,9 hPa 0,0 l/m 2,8 km/h (1 Bft) NW 313 0,9 C 3,2 C 6,4 km/h (2 Bft)
27.03.2023 19:00 3,3 C 85 % 1025,0 hPa 0,0 l/m 3,6 km/h (1 Bft) N 360 1,0 C 3,3 C 8,0 km/h (2 Bft)
27.03.2023 18:55 3,3 C 84 % 1024,9 hPa 0,0 l/m 3,0 km/h (1 Bft) N 360 0,9 C 3,3 C 8,0 km/h (2 Bft)
27.03.2023 18:50 3,2 C 85 % 1024,9 hPa 0,0 l/m 2,7 km/h (1 Bft) N 360 0,9 C 3,2 C 6,4 km/h (2 Bft)
27.03.2023 18:45 2,9 C 85 % 1024,8 hPa 0,0 l/m 3,4 km/h (1 Bft) N 360 0,6 C 2,9 C 9,7 km/h (2 Bft)
27.03.2023 18:40 2,9 C 84 % 1024,8 hPa 0,0 l/m 5,2 km/h (1 Bft) N-NW 338 0,5 C 2,9 C 12,9 km/h (3 Bft)
27.03.2023 18:35 3,2 C 83 % 1024,8 hPa 0,2 l/m 7,7 km/h (2 Bft) NO 45 0,6 C 2,0 C 29,0 km/h (5 Bft)
27.03.2023 18:30 3,9 C 79 % 1025,0 hPa 0,0 l/m 17,4 km/h (3 Bft) N-NW 340 0,6 C -3,5 C 33,8 km/h (5 Bft)
27.03.2023 18:25 5,1 C 79 % 1024,8 hPa 0,0 l/m 5,7 km/h (2 Bft) N 355 1,8 C 5,1 C 20,9 km/h (4 Bft)
27.03.2023 18:20 5,0 C 80 % 1024,4 hPa 0,0 l/m 4,4 km/h (1 Bft) NO 40 1,8 C 5,0 C 11,3 km/h (2 Bft)
27.03.2023 18:15 4,6 C 81 % 1024,4 hPa 0,0 l/m 3,3 km/h (1 Bft) NW 306 1,6 C 4,6 C 8,0 km/h (2 Bft)
27.03.2023 18:10 4,3 C 81 % 1024,3 hPa 0,0 l/m 4,5 km/h (1 Bft) N-NO 15 1,3 C 4,3 C 12,9 km/h (3 Bft)
27.03.2023 18:05 4,1 C 82 % 1024,2 hPa 0,0 l/m 4,2 km/h (1 Bft) N 360 1,3 C 4,1 C 14,5 km/h (3 Bft)
27.03.2023 18:00 3,9 C 80 % 1024,3 hPa 0,0 l/m 9,5 km/h (2 Bft) N-NO 20 0,8 C 1,2 C 19,3 km/h (3 Bft)
27.03.2023 17:55 4,2 C 79 % 1024,2 hPa 0,0 l/m 9,9 km/h (2 Bft) N 5 0,9 C 1,3 C 20,9 km/h (4 Bft)
27.03.2023 17:50 4,6 C 77 % 1024,2 hPa 0,0 l/m 10,2 km/h (2 Bft) N 355 0,9 C 1,5 C 19,3 km/h (3 Bft)
27.03.2023 17:45 4,8 C 77 % 1024,2 hPa 0,0 l/m 9,8 km/h (2 Bft) NW 321 1,1 C 2,0 C 16,1 km/h (3 Bft)
27.03.2023 17:40 4,9 C 76 % 1024,1 hPa 0,0 l/m 8,8 km/h (2 Bft) NW 322 1,0 C 2,9 C 16,1 km/h (3 Bft)
27.03.2023 17:35 5,1 C 75 % 1024,1 hPa 0,0 l/m 9,2 km/h (2 Bft) N-NW 345 1,0 C 2,8 C 17,7 km/h (3 Bft)
27.03.2023 17:30 5,3 C 74 % 1024,0 hPa 0,0 l/m 10,4 km/h (2 Bft) NW 312 1,0 C 2,1 C 19,3 km/h (3 Bft)
27.03.2023 17:25 5,9 C 71 % 1023,9 hPa 0,0 l/m 12,9 km/h (3 Bft) NW 325 1,1 C 1,3 C 22,5 km/h (4 Bft)
27.03.2023 17:20 6,6 C 69 % 1023,9 hPa 0,0 l/m 14,6 km/h (3 Bft) W-NW 288 1,3 C 1,2 C 29,0 km/h (5 Bft)
27.03.2023 17:15 6,8 C 67 % 1023,7 hPa 0,0 l/m 13,0 km/h (3 Bft) NW 315 1,1 C 2,3 C 20,9 km/h (4 Bft)
27.03.2023 17:10 6,7 C 69 % 1023,8 hPa 0,0 l/m 10,9 km/h (2 Bft) N-NW 343 1,4 C 3,4 C 24,1 km/h (4 Bft)
27.03.2023 17:05 6,4 C 71 % 1023,7 hPa 0,0 l/m 8,7 km/h (2 Bft) NW 323 1,5 C 4,5 C 17,7 km/h (3 Bft)
27.03.2023 17:00 6,1 C 72 % 1023,7 hPa 0,2 l/m 10,8 km/h (2 Bft) W-NW 284 1,4 C 2,8 C 19,3 km/h (3 Bft)
27.03.2023 16:55 5,9 C 76 % 1023,7 hPa 0,0 l/m 9,3 km/h (2 Bft) N 355 2,0 C 3,6 C 17,7 km/h (3 Bft)
27.03.2023 16:50 5,6 C 79 % 1023,7 hPa 0,2 l/m 8,4 km/h (2 Bft) W-NW 293 2,3 C 3,9 C 16,1 km/h (3 Bft)
27.03.2023 16:45 5,2 C 82 % 1023,7 hPa 0,2 l/m 8,7 km/h (2 Bft) NW 323 2,4 C 3,3 C 17,7 km/h (3 Bft)
27.03.2023 16:40 4,7 C 85 % 1023,6 hPa 0,4 l/m 8,0 km/h (2 Bft) NW 309 2,4 C 3,3 C 16,1 km/h (3 Bft)
27.03.2023 16:35 4,1 C 88 % 1023,7 hPa 0,2 l/m 6,5 km/h (2 Bft) N 355 2,3 C 4,0 C 14,5 km/h (3 Bft)
27.03.2023 16:30 3,5 C 88 % 1023,7 hPa 0,2 l/m 4,0 km/h (1 Bft) N 5 1,7 C 3,5 C 8,0 km/h (2 Bft)
27.03.2023 16:25 3,2 C 86 % 1023,8 hPa 0,0 l/m 5,0 km/h (1 Bft) NO 34 1,1 C 3,2 C 14,5 km/h (3 Bft)
27.03.2023 16:20 3,5 C 82 % 1023,8 hPa 0,0 l/m 13,9 km/h (3 Bft) N 350 0,7 C -2,1 C 25,7 km/h (4 Bft)
27.03.2023 16:15 5,0 C 76 % 1023,9 hPa 0,0 l/m 15,4 km/h (3 Bft) N 5 1,1 C -1,1 C 30,6 km/h (5 Bft)
27.03.2023 16:10 6,2 C 73 % 1023,5 hPa 0,0 l/m 8,2 km/h (2 Bft) NW 320 1,7 C 4,7 C 17,7 km/h (3 Bft)
27.03.2023 16:05 6,3 C 71 % 1023,3 hPa 0,0 l/m 8,6 km/h (2 Bft) NW 321 1,4 C 4,5 C 16,1 km/h (3 Bft)
27.03.2023 16:00 6,4 C 72 % 1023,3 hPa 0,0 l/m 10,4 km/h (2 Bft) N-NW 327 1,7 C 3,4 C 19,3 km/h (3 Bft)
27.03.2023 15:55 6,6 C 76 % 1023,3 hPa 0,0 l/m 9,2 km/h (2 Bft) W 275 2,7 C 4,4 C 19,3 km/h (3 Bft)
27.03.2023 15:50 6,3 C 76 % 1023,4 hPa 0,0 l/m 11,4 km/h (2 Bft) NW 326 2,4 C 2,6 C 20,9 km/h (4 Bft)
27.03.2023 15:45 5,8 C 80 % 1023,3 hPa 0,0 l/m 8,8 km/h (2 Bft) N-NW 327 2,6 C 3,8 C 17,7 km/h (3 Bft)
27.03.2023 15:40 5,1 C 82 % 1023,3 hPa 0,0 l/m 6,2 km/h (2 Bft) NW 304 2,3 C 5,1 C 16,1 km/h (3 Bft)
27.03.2023 15:35 4,8 C 78 % 1023,3 hPa 0,0 l/m 9,2 km/h (2 Bft) W-NW 285 1,3 C 2,4 C 19,3 km/h (3 Bft)
27.03.2023 15:30 4,8 C 80 % 1023,3 hPa 0,0 l/m 11,0 km/h (2 Bft) NW 305 1,6 C 1,2 C 20,9 km/h (4 Bft)
27.03.2023 15:25 4,8 C 81 % 1023,4 hPa 0,0 l/m 9,7 km/h (2 Bft) N-NW 327 1,8 C 2,1 C 19,3 km/h (3 Bft)
27.03.2023 15:20 5,1 C 78 % 1023,4 hPa 0,0 l/m 11,0 km/h (2 Bft) NW 311 1,6 C 1,5 C 22,5 km/h (4 Bft)
27.03.2023 15:15 5,5 C 77 % 1023,3 hPa 0,0 l/m 10,3 km/h (2 Bft) N 360 1,8 C 2,4 C 19,3 km/h (3 Bft)
27.03.2023 15:10 6,2 C 74 % 1023,3 hPa 0,0 l/m 13,1 km/h (3 Bft) N 360 1,9 C 1,5 C 25,7 km/h (4 Bft)
27.03.2023 15:05 6,6 C 71 % 1023,1 hPa 0,0 l/m 10,8 km/h (2 Bft) W 279 1,7 C 3,3 C 20,9 km/h (4 Bft)
27.03.2023 15:00 6,4 C 70 % 1023,0 hPa 0,0 l/m 11,9 km/h (2 Bft) W-NW 294 1,3 C 2,4 C 22,5 km/h (4 Bft)
27.03.2023 14:55 6,4 C 69 % 1023,1 hPa 0,0 l/m 11,1 km/h (2 Bft) W 272 1,1 C 2,9 C 19,3 km/h (3 Bft)
27.03.2023 14:50 6,7 C 67 % 1023,0 hPa 0,0 l/m 8,5 km/h (2 Bft) W 277 1,0 C 5,0 C 14,5 km/h (3 Bft)
27.03.2023 14:45 6,8 C 68 % 1023,0 hPa 0,0 l/m 9,7 km/h (2 Bft) N-NW 330 1,3 C 4,3 C 16,1 km/h (3 Bft)
27.03.2023 14:40 6,5 C 70 % 1023,0 hPa 0,0 l/m 12,9 km/h (3 Bft) N-NW 327 1,4 C 2,0 C 20,9 km/h (4 Bft)
27.03.2023 14:35 6,2 C 73 % 1023,0 hPa 0,0 l/m 11,3 km/h (2 Bft) NW 319 1,7 C 2,6 C 20,9 km/h (4 Bft)
27.03.2023 14:30 6,2 C 69 % 1022,9 hPa 0,0 l/m 13,4 km/h (3 Bft) W-NW 294 0,9 C 1,4 C 30,6 km/h (5 Bft)
27.03.2023 14:25 7,1 C 68 % 1022,9 hPa 0,0 l/m 14,0 km/h (3 Bft) W 279 1,6 C 2,1 C 32,2 km/h (5 Bft)
27.03.2023 14:20 7,1 C 69 % 1022,9 hPa 0,0 l/m 13,1 km/h (3 Bft) W-NW 299 1,8 C 2,6 C 25,7 km/h (4 Bft)
27.03.2023 14:15 6,8 C 66 % 1022,8 hPa 0,0 l/m 15,0 km/h (3 Bft) W-SW 240 0,9 C 1,3 C 27,4 km/h (5 Bft)
27.03.2023 14:10 6,7 C 67 % 1022,7 hPa 0,0 l/m 9,5 km/h (2 Bft) N-NW 329 1,0 C 4,3 C 25,7 km/h (4 Bft)
27.03.2023 14:05 6,8 C 66 % 1022,8 hPa 0,0 l/m 8,3 km/h (2 Bft) NW 325 0,9 C 5,3 C 17,7 km/h (3 Bft)
27.03.2023 14:00 7,1 C 64 % 1022,8 hPa 0,0 l/m 12,1 km/h (2 Bft) W-NW 284 0,8 C 3,1 C 24,1 km/h (4 Bft)
27.03.2023 13:55 7,4 C 69 % 1022,8 hPa 0,0 l/m 11,4 km/h (2 Bft) W-NW 296 2,1 C 3,9 C 22,5 km/h (4 Bft)
27.03.2023 13:50 7,5 C 66 % 1022,8 hPa 0,0 l/m 12,9 km/h (3 Bft) W 281 1,6 C 3,1 C 22,5 km/h (4 Bft)
27.03.2023 13:45 7,4 C 66 % 1022,7 hPa 0,0 l/m 11,6 km/h (2 Bft) W-NW 297 1,5 C 3,7 C 24,1 km/h (4 Bft)
27.03.2023 13:40 7,0 C 68 % 1022,7 hPa 0,0 l/m 9,1 km/h (2 Bft) W 272 1,5 C 4,9 C 16,1 km/h (3 Bft)
27.03.2023 13:35 6,8 C 65 % 1022,7 hPa 0,0 l/m 10,6 km/h (2 Bft) W-NW 291 0,7 C 3,7 C 22,5 km/h (4 Bft)
27.03.2023 13:30 6,9 C 65 % 1022,7 hPa 0,0 l/m 12,8 km/h (3 Bft) W-NW 297 0,8 C 2,5 C 25,7 km/h (4 Bft)
27.03.2023 13:25 6,7 C 69 % 1022,7 hPa 0,0 l/m 10,2 km/h (2 Bft) W 266 1,4 C 3,8 C 16,1 km/h (3 Bft)
27.03.2023 13:20 6,6 C 68 % 1022,6 hPa 0,0 l/m 9,1 km/h (2 Bft) NW 306 1,1 C 4,5 C 20,9 km/h (4 Bft)
27.03.2023 13:15 6,2 C 71 % 1022,7 hPa 0,0 l/m 8,2 km/h (2 Bft) NW 316 1,3 C 4,7 C 17,7 km/h (3 Bft)
27.03.2023 13:10 5,9 C 71 % 1022,7 hPa 0,0 l/m 11,1 km/h (2 Bft) W-NW 291 1,1 C 2,3 C 20,9 km/h (4 Bft)
27.03.2023 13:05 5,9 C 68 % 1022,7 hPa 0,0 l/m 11,9 km/h (2 Bft) N 5 0,5 C 1,9 C 22,5 km/h (4 Bft)
27.03.2023 13:00 6,2 C 68 % 1022,6 hPa 0,0 l/m 9,1 km/h (2 Bft) W-NW 299 0,7 C 4,0 C 20,9 km/h (4 Bft)
27.03.2023 12:55 5,9 C 70 % 1022,6 hPa 0,0 l/m 12,3 km/h (2 Bft) N 5 0,9 C 1,6 C 22,5 km/h (4 Bft)
27.03.2023 12:50 6,0 C 71 % 1022,5 hPa 0,0 l/m 9,2 km/h (2 Bft) NW 320 1,1 C 3,7 C 19,3 km/h (3 Bft)
27.03.2023 12:45 5,7 C 70 % 1022,5 hPa 0,0 l/m 13,4 km/h (3 Bft) NW 325 0,7 C 0,8 C 22,5 km/h (4 Bft)
27.03.2023 12:40 5,3 C 72 % 1022,5 hPa 0,0 l/m 11,2 km/h (2 Bft) N-NW 330 0,7 C 1,6 C 20,9 km/h (4 Bft)
27.03.2023 12:35 4,7 C 75 % 1022,5 hPa 0,0 l/m 10,3 km/h (2 Bft) NW 324 0,7 C 1,5 C 17,7 km/h (3 Bft)
27.03.2023 12:30 4,7 C 75 % 1022,5 hPa 0,0 l/m 11,7 km/h (2 Bft) N-NW 327 0,7 C 0,6 C 20,9 km/h (4 Bft)
27.03.2023 12:25 4,9 C 77 % 1022,5 hPa 0,0 l/m 10,0 km/h (2 Bft) W-NW 300 1,2 C 2,0 C 20,9 km/h (4 Bft)
27.03.2023 12:20 4,8 C 81 % 1022,5 hPa 0,0 l/m 11,2 km/h (2 Bft) NW 317 1,8 C 1,0 C 17,7 km/h (3 Bft)
27.03.2023 12:15 4,1 C 82 % 1022,4 hPa 0,0 l/m 7,6 km/h (2 Bft) N 360 1,3 C 3,0 C 16,1 km/h (3 Bft)
27.03.2023 12:10 3,9 C 80 % 1022,5 hPa 0,0 l/m 10,9 km/h (2 Bft) N 360 0,8 C 0,2 C 19,3 km/h (3 Bft)
27.03.2023 12:05 4,4 C 78 % 1022,5 hPa 0,0 l/m 10,8 km/h (2 Bft) W-NW 300 0,9 C 0,8 C 22,5 km/h (4 Bft)
27.03.2023 12:00 4,6 C 77 % 1022,4 hPa 0,0 l/m 9,7 km/h (2 Bft) N-NW 336 0,9 C 1,8 C 17,7 km/h (3 Bft)
27.03.2023 11:55 5,1 C 77 % 1022,4 hPa 0,0 l/m 9,2 km/h (2 Bft) N 355 1,4 C 2,8 C 17,7 km/h (3 Bft)
27.03.2023 11:50 5,4 C 75 % 1022,1 hPa 0,0 l/m 9,2 km/h (2 Bft) NW 304 1,3 C 3,1 C 17,7 km/h (3 Bft)
27.03.2023 11:45 5,8 C 75 % 1021,9 hPa 0,0 l/m 9,3 km/h (2 Bft) NW 325 1,7 C 3,4 C 19,3 km/h (3 Bft)
27.03.2023 11:40 5,8 C 76 % 1022,0 hPa 0,0 l/m 9,7 km/h (2 Bft) NW 324 1,9 C 3,2 C 20,9 km/h (4 Bft)
27.03.2023 11:35 5,5 C 77 % 1022,0 hPa 0,0 l/m 10,8 km/h (2 Bft) N-NW 327 1,8 C 2,1 C 20,9 km/h (4 Bft)
27.03.2023 11:30 5,2 C 77 % 1021,9 hPa 0,0 l/m 10,3 km/h (2 Bft) NW 315 1,5 C 2,1 C 19,3 km/h (3 Bft)
27.03.2023 11:25 4,8 C 79 % 1021,9 hPa 0,0 l/m 9,9 km/h (2 Bft) NW 313 1,5 C 1,9 C 17,7 km/h (3 Bft)
27.03.2023 11:20 4,8 C 81 % 1022,0 hPa 0,0 l/m 9,9 km/h (2 Bft) NW 326 1,8 C 1,9 C 17,7 km/h (3 Bft)
27.03.2023 11:15 4,8 C 81 % 1022,0 hPa 0,0 l/m 9,4 km/h (2 Bft) N-NO 15 1,8 C 2,3 C 19,3 km/h (3 Bft)
27.03.2023 11:10 4,3 C 83 % 1021,9 hPa 0,0 l/m 8,8 km/h (2 Bft) N-NW 328 1,7 C 2,2 C 16,1 km/h (3 Bft)
27.03.2023 11:05 4,1 C 82 % 1021,8 hPa 0,0 l/m 9,5 km/h (2 Bft) N-NW 330 1,3 C 1,4 C 20,9 km/h (4 Bft)
27.03.2023 11:00 4,1 C 83 % 1021,8 hPa 0,0 l/m 7,8 km/h (2 Bft) N 5 1,5 C 2,8 C 19,3 km/h (3 Bft)
27.03.2023 10:55 4,1 C 84 % 1021,7 hPa 0,0 l/m 7,6 km/h (2 Bft) NW 317 1,6 C 3,0 C 16,1 km/h (3 Bft)
27.03.2023 10:50 4,1 C 83 % 1021,7 hPa 0,0 l/m 9,6 km/h (2 Bft) N-NW 329 1,5 C 1,4 C 19,3 km/h (3 Bft)
27.03.2023 10:45 4,1 C 85 % 1021,6 hPa 0,0 l/m 8,0 km/h (2 Bft) NW 322 1,8 C 2,7 C 16,1 km/h (3 Bft)
27.03.2023 10:40 3,9 C 86 % 1021,5 hPa 0,0 l/m 7,5 km/h (2 Bft) NW 323 1,8 C 2,9 C 14,5 km/h (3 Bft)
27.03.2023 10:35 3,7 C 87 % 1021,5 hPa 0,0 l/m 6,4 km/h (2 Bft) NW 310 1,7 C 3,7 C 14,5 km/h (3 Bft)
27.03.2023 10:30 3,6 C 87 % 1021,4 hPa 0,0 l/m 8,1 km/h (2 Bft) N-NW 339 1,6 C 2,0 C 16,1 km/h (3 Bft)
27.03.2023 10:25 3,4 C 87 % 1021,4 hPa 0,0 l/m 6,7 km/h (2 Bft) W-NW 282 1,4 C 3,1 C 14,5 km/h (3 Bft)
27.03.2023 10:20 3,3 C 89 % 1021,3 hPa 0,0 l/m 6,4 km/h (2 Bft) N-NW 339 1,7 C 3,3 C 14,5 km/h (3 Bft)
27.03.2023 10:15 3,2 C 89 % 1021,2 hPa 0,0 l/m 8,2 km/h (2 Bft) N-NW 341 1,6 C 1,5 C 14,5 km/h (3 Bft)
27.03.2023 10:10 3,2 C 89 % 1021,3 hPa 0,0 l/m 7,7 km/h (2 Bft) N-NW 336 1,6 C 2,0 C 16,1 km/h (3 Bft)
27.03.2023 10:05 3,1 C 90 % 1021,1 hPa 0,0 l/m 8,0 km/h (2 Bft) NW 318 1,6 C 1,6 C 16,1 km/h (3 Bft)
27.03.2023 10:00 3,0 C 90 % 1021,0 hPa 0,0 l/m 8,1 km/h (2 Bft) W-NW 302 1,5 C 1,4 C 17,7 km/h (3 Bft)
27.03.2023 09:55 2,8 C 90 % 1021,0 hPa 0,0 l/m 7,6 km/h (2 Bft) NW 313 1,3 C 1,7 C 17,7 km/h (3 Bft)
27.03.2023 09:50 2,8 C 91 % 1021,0 hPa 0,0 l/m 5,5 km/h (2 Bft) W-NW 289 1,5 C 2,8 C 14,5 km/h (3 Bft)
27.03.2023 09:45 2,7 C 91 % 1021,0 hPa 0,0 l/m 7,4 km/h (2 Bft) N 360 1,4 C 1,7 C 14,5 km/h (3 Bft)
27.03.2023 09:40 2,6 C 92 % 1020,8 hPa 0,0 l/m 8,0 km/h (2 Bft) N 360 1,4 C 1,1 C 17,7 km/h (3 Bft)
27.03.2023 09:35 2,4 C 93 % 1020,9 hPa 0,0 l/m 5,9 km/h (2 Bft) N 360 1,4 C 2,4 C 12,9 km/h (3 Bft)
27.03.2023 09:30 2,2 C 92 % 1020,8 hPa 0,0 l/m 5,8 km/h (2 Bft) NW 315 1,0 C 2,2 C 12,9 km/h (3 Bft)
27.03.2023 09:25 2,0 C 92 % 1020,8 hPa 0,2 l/m 5,4 km/h (2 Bft) W-NW 294 0,8 C 2,0 C 14,5 km/h (3 Bft)
27.03.2023 09:20 2,0 C 91 % 1020,6 hPa 0,0 l/m 6,9 km/h (2 Bft) W-NW 298 0,7 C 1,5 C 12,9 km/h (3 Bft)
27.03.2023 09:15 2,1 C 90 % 1020,5 hPa 0,0 l/m 7,8 km/h (2 Bft) NW 317 0,6 C 0,7 C 17,7 km/h (3 Bft)
27.03.2023 09:10 2,2 C 90 % 1020,5 hPa 0,0 l/m 8,9 km/h (2 Bft) NW 321 0,7 C -0,1 C 16,1 km/h (3 Bft)
27.03.2023 09:05 2,3 C 89 % 1020,3 hPa 0,0 l/m 7,2 km/h (2 Bft) NW 316 0,7 C 1,5 C 16,1 km/h (3 Bft)
27.03.2023 09:00 2,4 C 89 % 1020,3 hPa 0,0 l/m 6,5 km/h (2 Bft) N 360 0,8 C 2,3 C 14,5 km/h (3 Bft)
27.03.2023 08:55 2,2 C 90 % 1020,2 hPa 0,0 l/m 4,5 km/h (1 Bft) N 360 0,7 C 2,2 C 11,3 km/h (2 Bft)
27.03.2023 08:50 2,1 C 90 % 1020,1 hPa 0,0 l/m 4,5 km/h (1 Bft) W-NW 285 0,6 C 2,1 C 9,7 km/h (2 Bft)
27.03.2023 08:45 2,1 C 90 % 1020,0 hPa 0,0 l/m 3,5 km/h (1 Bft) W-NW 295 0,6 C 2,1 C 6,4 km/h (2 Bft)
27.03.2023 08:40 2,0 C 90 % 1020,0 hPa 0,0 l/m 4,2 km/h (1 Bft) N 360 0,5 C 2,0 C 8,0 km/h (2 Bft)
27.03.2023 08:35 1,9 C 90 % 1020,0 hPa 0,0 l/m 3,9 km/h (1 Bft) N 360 0,4 C 1,9 C 8,0 km/h (2 Bft)
27.03.2023 08:30 1,9 C 90 % 1019,9 hPa 0,0 l/m 3,8 km/h (1 Bft) W 277 0,4 C 1,9 C 8,0 km/h (2 Bft)
27.03.2023 08:25 1,8 C 90 % 1019,8 hPa 0,0 l/m 4,3 km/h (1 Bft) W-NW 296 0,3 C 1,8 C 11,3 km/h (2 Bft)
27.03.2023 08:20 1,7 C 90 % 1019,7 hPa 0,0 l/m 3,9 km/h (1 Bft) W-NW 303 0,2 C 1,7 C 9,7 km/h (2 Bft)
27.03.2023 08:15 1,7 C 89 % 1019,7 hPa 0,0 l/m 4,8 km/h (1 Bft) W-NW 290 0,1 C 1,7 C 11,3 km/h (2 Bft)
27.03.2023 08:10 1,6 C 90 % 1019,6 hPa 0,0 l/m 5,4 km/h (2 Bft) N 360 0,1 C 1,6 C 9,7 km/h (2 Bft)
27.03.2023 08:05 1,4 C 89 % 1019,5 hPa 0,0 l/m 5,8 km/h (2 Bft) N 360 -0,2 C 1,4 C 12,9 km/h (3 Bft)
27.03.2023 08:00 1,3 C 90 % 1019,5 hPa 0,0 l/m 6,3 km/h (2 Bft) N 360 -0,2 C 1,3 C 14,5 km/h (3 Bft)
27.03.2023 07:55 1,2 C 90 % 1019,4 hPa 0,0 l/m 6,4 km/h (2 Bft) W 275 -0,3 C 1,2 C 11,3 km/h (2 Bft)
27.03.2023 07:50 1,1 C 89 % 1019,3 hPa 0,0 l/m 5,7 km/h (2 Bft) W 274 -0,5 C 1,1 C 11,3 km/h (2 Bft)
27.03.2023 07:45 0,9 C 89 % 1019,2 hPa 0,0 l/m 5,1 km/h (1 Bft) W 271 -0,7 C 0,9 C 12,9 km/h (3 Bft)
27.03.2023 07:40 0,9 C 89 % 1019,1 hPa 0,0 l/m 4,5 km/h (1 Bft) W-NW 284 -0,7 C 0,9 C 9,7 km/h (2 Bft)
27.03.2023 07:35 0,9 C 89 % 1019,0 hPa 0,0 l/m 5,4 km/h (2 Bft) W 275 -0,7 C 0,9 C 11,3 km/h (2 Bft)
27.03.2023 07:30 0,8 C 89 % 1018,9 hPa 0,0 l/m 7,5 km/h (2 Bft) W 272 -0,8 C -0,3 C 14,5 km/h (3 Bft)
27.03.2023 07:25 0,7 C 89 % 1018,8 hPa 0,0 l/m 7,5 km/h (2 Bft) W 262 -0,9 C -0,4 C 14,5 km/h (3 Bft)
27.03.2023 07:20 0,6 C 90 % 1018,9 hPa 0,0 l/m 6,2 km/h (2 Bft) W 269 -0,8 C 0,6 C 11,3 km/h (2 Bft)
27.03.2023 07:15 0,6 C 90 % 1018,8 hPa 0,0 l/m 6,3 km/h (2 Bft) W 272 -0,8 C 0,6 C 12,9 km/h (3 Bft)
27.03.2023 07:10 0,4 C 90 % 1018,8 hPa 0,0 l/m 4,5 km/h (1 Bft) W 267 -1,0 C 0,4 C 11,3 km/h (2 Bft)
27.03.2023 07:05 0,4 C 90 % 1018,7 hPa 0,0 l/m 4,0 km/h (1 Bft) W-NW 301 -1,0 C 0,4 C 8,0 km/h (2 Bft)
27.03.2023 07:00 0,5 C 90 % 1018,6 hPa 0,0 l/m 4,2 km/h (1 Bft) W 277 -0,9 C 0,5 C 6,4 km/h (2 Bft)
27.03.2023 06:55 0,5 C 90 % 1018,4 hPa 0,0 l/m 4,9 km/h (1 Bft) W-NW 292 -0,9 C 0,5 C 9,7 km/h (2 Bft)
27.03.2023 06:50 0,5 C 90 % 1018,5 hPa 0,0 l/m 5,8 km/h (2 Bft) W 273 -0,9 C 0,5 C 9,7 km/h (2 Bft)
27.03.2023 06:45 0,5 C 89 % 1018,4 hPa 0,0 l/m 5,0 km/h (1 Bft) W 275 -1,1 C 0,5 C 9,7 km/h (2 Bft)
27.03.2023 06:40 0,6 C 89 % 1018,3 hPa 0,0 l/m 4,4 km/h (1 Bft) W-NW 286 -1,0 C 0,6 C 11,3 km/h (2 Bft)
27.03.2023 06:35 0,7 C 89 % 1018,3 hPa 0,0 l/m 3,6 km/h (1 Bft) W 272 -0,9 C 0,7 C 6,4 km/h (2 Bft)
27.03.2023 06:30 0,7 C 89 % 1018,2 hPa 0,0 l/m 4,1 km/h (1 Bft) W 273 -0,9 C 0,7 C 9,7 km/h (2 Bft)
27.03.2023 06:25 0,8 C 89 % 1018,2 hPa 0,0 l/m 4,0 km/h (1 Bft) W-NW 285 -0,8 C 0,8 C 6,4 km/h (2 Bft)
27.03.2023 06:20 0,9 C 89 % 1018,0 hPa 0,0 l/m 4,0 km/h (1 Bft) W-NW 285 -0,7 C 0,9 C 11,3 km/h (2 Bft)
27.03.2023 06:15 0,9 C 89 % 1017,9 hPa 0,0 l/m 5,3 km/h (1 Bft) NW 305 -0,7 C 0,9 C 14,5 km/h (3 Bft)
27.03.2023 06:10 0,9 C 88 % 1017,9 hPa 0,0 l/m 3,8 km/h (1 Bft) NW 318 -0,9 C 0,9 C 9,7 km/h (2 Bft)
27.03.2023 06:05 1,0 C 88 % 1017,8 hPa 0,0 l/m 3,8 km/h (1 Bft) NW 307 -0,8 C 1,0 C 11,3 km/h (2 Bft)
27.03.2023 06:00 1,1 C 89 % 1017,7 hPa 0,0 l/m 4,1 km/h (1 Bft) W-NW 293 -0,5 C 1,1 C 8,0 km/h (2 Bft)
27.03.2023 05:55 1,1 C 88 % 1017,7 hPa 0,0 l/m 4,5 km/h (1 Bft) NW 304 -0,7 C 1,1 C 11,3 km/h (2 Bft)
27.03.2023 05:50 1,1 C 88 % 1017,5 hPa 0,0 l/m 4,2 km/h (1 Bft) NW 315 -0,7 C 1,1 C 8,0 km/h (2 Bft)
27.03.2023 05:45 1,1 C 88 % 1017,5 hPa 0,0 l/m 4,6 km/h (1 Bft) W-NW 292 -0,7 C 1,1 C 11,3 km/h (2 Bft)
27.03.2023 05:40 1,2 C 88 % 1017,4 hPa 0,0 l/m 4,4 km/h (1 Bft) W-NW 296 -0,6 C 1,2 C 11,3 km/h (2 Bft)
27.03.2023 05:35 1,2 C 88 % 1017,3 hPa 0,0 l/m 3,8 km/h (1 Bft) W-NW 296 -0,6 C 1,2 C 8,0 km/h (2 Bft)
27.03.2023 05:30 1,3 C 88 % 1017,2 hPa 0,0 l/m 4,0 km/h (1 Bft) NW 312 -0,5 C 1,3 C 12,9 km/h (3 Bft)
27.03.2023 05:25 1,4 C 88 % 1017,1 hPa 0,0 l/m 4,5 km/h (1 Bft) NW 304 -0,4 C 1,4 C 12,9 km/h (3 Bft)
27.03.2023 05:20 1,4 C 88 % 1017,1 hPa 0,0 l/m 5,0 km/h (1 Bft) W-NW 298 -0,4 C 1,4 C 12,9 km/h (3 Bft)
27.03.2023 05:15 1,4 C 89 % 1017,0 hPa 0,0 l/m 6,3 km/h (2 Bft) W-NW 295 -0,2 C 1,4 C 12,9 km/h (3 Bft)
27.03.2023 05:10 1,3 C 89 % 1017,0 hPa 0,0 l/m 5,8 km/h (2 Bft) W-NW 294 -0,3 C 1,3 C 16,1 km/h (3 Bft)
27.03.2023 05:05 1,1 C 89 % 1016,9 hPa 0,0 l/m 5,7 km/h (2 Bft) W-NW 284 -0,5 C 1,1 C 16,1 km/h (3 Bft)
27.03.2023 05:00 1,0 C 89 % 1016,8 hPa 0,0 l/m 4,9 km/h (1 Bft) W-NW 301 -0,6 C 1,0 C 11,3 km/h (2 Bft)
27.03.2023 04:55 1,0 C 88 % 1016,7 hPa 0,0 l/m 4,6 km/h (1 Bft) NW 304 -0,8 C 1,0 C 12,9 km/h (3 Bft)
27.03.2023 04:50 1,1 C 88 % 1016,5 hPa 0,0 l/m 5,4 km/h (2 Bft) W-NW 296 -0,7 C 1,1 C 11,3 km/h (2 Bft)
27.03.2023 04:45 1,1 C 88 % 1016,5 hPa 0,0 l/m 5,3 km/h (1 Bft) W-NW 292 -0,7 C 1,1 C 11,3 km/h (2 Bft)
27.03.2023 04:40 1,1 C 88 % 1016,4 hPa 0,0 l/m 5,7 km/h (2 Bft) NW 309 -0,7 C 1,1 C 12,9 km/h (3 Bft)
27.03.2023 04:35 1,1 C 88 % 1016,4 hPa 0,0 l/m 6,8 km/h (2 Bft) W-NW 290 -0,7 C 0,7 C 14,5 km/h (3 Bft)
27.03.2023 04:30 1,2 C 88 % 1016,3 hPa 0,0 l/m 5,6 km/h (2 Bft) NW 315 -0,6 C 1,2 C 12,9 km/h (3 Bft)
27.03.2023 04:25 1,2 C 88 % 1016,1 hPa 0,0 l/m 5,2 km/h (1 Bft) W-NW 294 -0,6 C 1,2 C 14,5 km/h (3 Bft)
27.03.2023 04:20 1,3 C 88 % 1016,0 hPa 0,0 l/m 5,8 km/h (2 Bft) NW 305 -0,5 C 1,3 C 11,3 km/h (2 Bft)
27.03.2023 04:15 1,3 C 88 % 1015,9 hPa 0,0 l/m 5,3 km/h (1 Bft) NW 304 -0,5 C 1,3 C 14,5 km/h (3 Bft)
27.03.2023 04:10 1,3 C 88 % 1015,9 hPa 0,0 l/m 5,0 km/h (1 Bft) NW 306 -0,5 C 1,3 C 11,3 km/h (2 Bft)
27.03.2023 04:05 1,3 C 88 % 1015,8 hPa 0,0 l/m 5,2 km/h (1 Bft) NW 304 -0,5 C 1,3 C 11,3 km/h (2 Bft)
27.03.2023 04:00 1,3 C 88 % 1015,7 hPa 0,0 l/m 5,7 km/h (2 Bft) NW 319 -0,5 C 1,3 C 11,3 km/h (2 Bft)
27.03.2023 03:55 1,3 C 88 % 1015,7 hPa 0,0 l/m 5,2 km/h (1 Bft) W-NW 294 -0,5 C 1,3 C 12,9 km/h (3 Bft)
27.03.2023 03:50 1,3 C 88 % 1015,6 hPa 0,0 l/m 5,5 km/h (2 Bft) W-NW 289 -0,5 C 1,3 C 12,9 km/h (3 Bft)
27.03.2023 03:45 1,3 C 88 % 1015,6 hPa 0,0 l/m 7,2 km/h (2 Bft) NW 311 -0,5 C 0,5 C 14,5 km/h (3 Bft)
27.03.2023 03:40 1,3 C 88 % 1015,5 hPa 0,0 l/m 5,6 km/h (2 Bft) W-NW 299 -0,5 C 1,3 C 12,9 km/h (3 Bft)
27.03.2023 03:35 1,3 C 88 % 1015,4 hPa 0,0 l/m 4,8 km/h (1 Bft) NW 304 -0,5 C 1,3 C 11,3 km/h (2 Bft)
27.03.2023 03:30 1,3 C 88 % 1015,3 hPa 0,0 l/m 4,9 km/h (1 Bft) W-NW 286 -0,5 C 1,3 C 9,7 km/h (2 Bft)
27.03.2023 03:25 1,4 C 88 % 1015,2 hPa 0,0 l/m 4,2 km/h (1 Bft) NW 313 -0,4 C 1,4 C 8,0 km/h (2 Bft)
27.03.2023 03:20 1,5 C 88 % 1015,1 hPa 0,0 l/m 5,2 km/h (1 Bft) N-NW 329 -0,3 C 1,5 C 11,3 km/h (2 Bft)
27.03.2023 03:15 1,4 C 88 % 1015,1 hPa 0,0 l/m 5,3 km/h (1 Bft) N-NW 332 -0,4 C 1,4 C 9,7 km/h (2 Bft)
27.03.2023 03:10 1,5 C 87 % 1015,1 hPa 0,0 l/m 5,3 km/h (1 Bft) NW 321 -0,4 C 1,5 C 9,7 km/h (2 Bft)
27.03.2023 03:05 1,6 C 87 % 1015,0 hPa 0,0 l/m 4,6 km/h (1 Bft) N-NW 348 -0,3 C 1,6 C 8,0 km/h (2 Bft)
27.03.2023 03:00 1,7 C 86 % 1014,9 hPa 0,0 l/m 3,7 km/h (1 Bft) NW 321 -0,4 C 1,7 C 8,0 km/h (2 Bft)
_ Min-Zeit 07:00 14:00 03:00 - 19:30 - - 01:45 18:30 19:10
Minimum _ 0,4 C 64 % 1014,9 hPa - 2,3 km/h (1 Bft) - - -1,8 C -3,5 C 4,8 km/h (1 Bft)
_ Max-Zeit 13:50 09:35 01:50 16:40 18:30 - - 15:55 14:05 18:30
Maximum _ 7,6 C 93 % 1028,3 hPa 0,4 l/m 17,4 km/h
N-NW (3 Bft)
- - 2,7 C 5,3 C 33,8 km/h
N (5 Bft)
Durchschnitt _ 2,9 C 83 % 1022,1 hPa #1,8 l/m 6,6 km/h (2 Bft) N - 0,2 C 1,9 C 13,4 km/h (3 Bft)
www.klaudt.eu